createdAt,value
2018-07-21T00:00:55.070Z,16.97
2018-07-21T00:03:23.447Z,16.75
2018-07-21T00:05:51.895Z,16.88
2018-07-21T00:08:20.225Z,16.65
2018-07-21T00:10:48.504Z,16.71
2018-07-21T00:13:16.861Z,16.71
2018-07-21T00:15:45.177Z,16.77
2018-07-21T00:18:13.707Z,16.71
2018-07-21T00:20:42.136Z,16.74
2018-07-21T00:23:10.461Z,16.62
2018-07-21T00:25:38.738Z,16.54
2018-07-21T00:28:07.070Z,16.32
2018-07-21T00:30:35.397Z,16.34
2018-07-21T00:33:03.759Z,16.40
2018-07-21T00:35:32.075Z,16.39
2018-07-21T00:38:00.641Z,16.35
2018-07-21T00:40:29.277Z,16.32
2018-07-21T00:42:57.571Z,16.21
2018-07-21T00:45:25.862Z,16.10
2018-07-21T00:47:54.235Z,16.42
2018-07-21T00:50:22.506Z,16.33
2018-07-21T00:52:50.857Z,16.19
2018-07-21T00:55:19.251Z,16.34
2018-07-21T00:57:47.786Z,16.27
2018-07-21T01:00:16.087Z,16.08
2018-07-21T01:02:44.415Z,15.96
2018-07-21T01:05:12.735Z,16.18
2018-07-21T01:07:41.327Z,16.22
2018-07-21T01:10:09.647Z,16.30
2018-07-21T01:12:38.390Z,16.31
2018-07-21T01:15:07.457Z,16.23
2018-07-21T01:17:35.886Z,16.34
2018-07-21T01:20:04.807Z,16.38
2018-07-21T01:22:33.153Z,16.29
2018-07-21T01:25:01.474Z,16.39
2018-07-21T01:27:30.080Z,16.33
2018-07-21T01:29:58.671Z,16.38
2018-07-21T01:32:26.999Z,16.41
2018-07-21T01:34:55.290Z,16.44
2018-07-21T01:37:24.091Z,16.40
2018-07-21T01:39:52.366Z,16.32
2018-07-21T01:42:20.690Z,16.11
2018-07-21T01:44:49.005Z,16.16
2018-07-21T01:47:17.338Z,16.11
2018-07-21T01:49:45.697Z,16.22
2018-07-21T01:52:13.983Z,16.11
2018-07-21T01:54:42.340Z,16.22
2018-07-21T01:57:10.629Z,16.28
2018-07-21T01:59:39.023Z,16.34
2018-07-21T02:02:07.340Z,16.35
2018-07-21T02:04:35.686Z,16.39
2018-07-21T02:07:04.042Z,16.44
2018-07-21T02:09:32.399Z,16.44
2018-07-21T02:12:00.686Z,16.45
2018-07-21T02:14:29.164Z,16.50
2018-07-21T02:16:57.495Z,16.46
2018-07-21T02:19:25.851Z,16.42
2018-07-21T02:21:54.379Z,16.37
2018-07-21T02:24:22.759Z,16.38
2018-07-21T02:26:51.050Z,16.46
2018-07-21T02:29:19.430Z,16.54
2018-07-21T02:31:47.832Z,16.69
2018-07-21T02:34:16.139Z,16.74
2018-07-21T02:36:44.414Z,16.71
2018-07-21T02:39:13.342Z,16.61
2018-07-21T02:41:41.758Z,16.62
2018-07-21T02:44:10.086Z,16.65
2018-07-21T02:46:38.398Z,16.62
2018-07-21T02:49:07.047Z,16.63
2018-07-21T02:51:35.371Z,16.72
2018-07-21T02:54:04.003Z,16.79
2018-07-21T02:56:32.374Z,16.81
2018-07-21T02:59:00.695Z,16.99
2018-07-21T03:01:29.054Z,17.05
2018-07-21T03:03:57.415Z,16.99
2018-07-21T03:06:25.735Z,16.84
2018-07-21T03:08:54.075Z,16.74
2018-07-21T03:11:22.352Z,16.72
2018-07-21T03:13:50.669Z,16.68
2018-07-21T03:16:18.959Z,16.86
2018-07-21T03:18:47.264Z,16.87
2018-07-21T03:21:15.700Z,16.73
2018-07-21T03:23:44.159Z,16.70
2018-07-21T03:26:12.458Z,16.67
2018-07-21T03:28:40.773Z,16.71
2018-07-21T03:31:09.129Z,16.79
2018-07-21T03:33:37.422Z,16.77
2018-07-21T03:36:05.856Z,16.86
2018-07-21T03:38:34.236Z,16.94
2018-07-21T03:41:02.590Z,17.05
2018-07-21T03:43:31.027Z,17.08
2018-07-21T03:45:59.389Z,17.19
2018-07-21T03:48:27.672Z,17.22
2018-07-21T03:50:56.115Z,17.31
2018-07-21T03:53:24.410Z,17.37
2018-07-21T03:55:52.811Z,17.43
2018-07-21T03:58:21.092Z,17.52
2018-07-21T04:00:49.694Z,17.56
2018-07-21T04:03:18.038Z,17.55
2018-07-21T04:05:46.566Z,17.56
2018-07-21T04:08:15.007Z,17.55
2018-07-21T04:10:43.335Z,17.64
2018-07-21T04:13:11.728Z,17.78
2018-07-21T04:15:40.034Z,18.00
2018-07-21T04:18:08.298Z,17.95
2018-07-21T04:20:36.621Z,17.81
2018-07-21T04:23:04.951Z,17.84
2018-07-21T04:25:33.350Z,17.94
2018-07-21T04:28:01.648Z,18.06
2018-07-21T04:30:30.012Z,18.23
2018-07-21T04:32:58.337Z,18.42
2018-07-21T04:35:26.666Z,18.56
2018-07-21T04:37:55.012Z,18.71
2018-07-21T04:40:23.405Z,18.89
2018-07-21T04:42:52.230Z,19.12
2018-07-21T04:45:20.598Z,19.23
2018-07-21T04:47:51.111Z,19.25
2018-07-21T04:50:20.027Z,19.43
2018-07-21T04:52:48.314Z,19.59
2018-07-21T04:55:16.648Z,19.59
2018-07-21T04:57:44.941Z,19.66
2018-07-21T05:00:13.593Z,19.78
2018-07-21T05:02:41.889Z,19.93
2018-07-21T05:05:10.220Z,19.96
2018-07-21T05:07:38.506Z,20.08
2018-07-21T05:10:06.958Z,20.12
2018-07-21T05:12:35.323Z,20.21
2018-07-21T05:15:04.229Z,20.25
2018-07-21T05:17:32.567Z,20.37
2018-07-21T05:20:00.866Z,20.51
2018-07-21T05:22:29.181Z,20.69
2018-07-21T05:24:57.744Z,20.65
2018-07-21T05:27:26.263Z,20.67
2018-07-21T05:29:55.588Z,20.72
2018-07-21T05:32:23.942Z,20.84
2018-07-21T05:34:52.230Z,20.83
2018-07-21T05:37:20.574Z,20.88
2018-07-21T05:39:48.867Z,21.07
2018-07-21T05:42:17.165Z,21.03
2018-07-21T05:44:45.600Z,21.05
2018-07-21T05:47:13.938Z,21.24
2018-07-21T05:49:42.222Z,21.17
2018-07-21T05:52:10.564Z,21.18
2018-07-21T05:54:38.991Z,21.20
2018-07-21T05:57:07.263Z,21.12
2018-07-21T05:59:35.560Z,21.06
2018-07-21T06:02:03.895Z,21.22
2018-07-21T06:04:32.322Z,21.19
2018-07-21T06:07:00.718Z,21.18
2018-07-21T06:09:29.547Z,21.25
2018-07-21T06:11:57.870Z,21.15
2018-07-21T06:14:26.194Z,21.13
2018-07-21T06:16:54.790Z,21.22
2018-07-21T06:19:23.026Z,21.35
2018-07-21T06:21:51.326Z,21.26
2018-07-21T06:24:19.616Z,21.38
2018-07-21T06:26:47.977Z,21.32
2018-07-21T06:29:16.342Z,21.28
2018-07-21T06:31:44.726Z,21.38
2018-07-21T06:34:13.029Z,21.29
2018-07-21T06:36:41.392Z,21.38
2018-07-21T06:39:11.927Z,21.49
2018-07-21T06:41:40.581Z,21.47
2018-07-21T06:44:09.159Z,21.55
2018-07-21T06:46:37.714Z,21.48
2018-07-21T06:49:06.029Z,21.40
2018-07-21T06:51:34.437Z,21.63
2018-07-21T06:54:02.795Z,21.68
2018-07-21T06:56:31.214Z,21.75
2018-07-21T06:58:59.564Z,21.87
2018-07-21T07:01:27.893Z,22.00
2018-07-21T07:03:56.367Z,22.09
2018-07-21T07:06:24.668Z,22.06
2018-07-21T07:08:53.163Z,22.23
2018-07-21T07:11:21.527Z,22.25
2018-07-21T07:13:49.841Z,22.41
2018-07-21T07:16:18.395Z,22.54
2018-07-21T07:18:46.790Z,22.56
2018-07-21T07:21:15.298Z,22.52
2018-07-21T07:23:52.772Z,22.65
2018-07-21T07:26:29.154Z,22.73
2018-07-21T07:28:57.487Z,22.91
2018-07-21T07:31:25.771Z,22.93
2018-07-21T07:33:54.946Z,23.02
2018-07-21T07:36:23.237Z,23.04
2018-07-21T07:38:51.908Z,22.97
2018-07-21T07:41:20.743Z,23.22
2018-07-21T07:43:50.968Z,23.28
2018-07-21T07:46:19.346Z,23.61
2018-07-21T07:48:47.702Z,23.63
2018-07-21T07:51:16.713Z,23.83
2018-07-21T07:53:45.334Z,24.15
2018-07-21T07:56:13.706Z,24.24
2018-07-21T07:58:42.191Z,24.41
2018-07-21T08:01:10.591Z,24.60
2018-07-21T08:03:39.025Z,24.31
2018-07-21T08:06:07.380Z,24.56
2018-07-21T08:08:35.747Z,24.64
2018-07-21T08:11:04.165Z,24.51
2018-07-21T08:13:32.627Z,24.46
2018-07-21T08:16:01.867Z,24.44
2018-07-21T08:18:30.219Z,24.69
2018-07-21T08:20:58.518Z,24.71
2018-07-21T08:23:27.126Z,24.86
2018-07-21T08:25:55.532Z,25.02
2018-07-21T08:28:23.907Z,25.10
2018-07-21T08:30:52.222Z,25.37
2018-07-21T08:33:20.688Z,25.35
2018-07-21T08:35:48.990Z,25.57
2018-07-21T08:38:17.456Z,25.83
2018-07-21T08:40:45.784Z,25.54
2018-07-21T08:43:14.162Z,25.58
2018-07-21T08:45:42.501Z,25.78
2018-07-21T08:48:11.100Z,25.55
2018-07-21T08:50:39.564Z,25.73
2018-07-21T08:53:08.104Z,25.53
2018-07-21T08:55:36.738Z,25.94
2018-07-21T08:58:05.301Z,26.11
2018-07-21T09:00:34.650Z,26.04
2018-07-21T09:03:02.984Z,25.96
2018-07-21T09:05:31.305Z,26.09
2018-07-21T09:07:59.593Z,26.17
2018-07-21T09:10:27.995Z,26.06
2018-07-21T09:12:56.304Z,26.12
2018-07-21T09:15:24.679Z,25.97
2018-07-21T09:17:52.992Z,25.88
2018-07-21T09:20:21.413Z,25.79
2018-07-21T09:22:49.707Z,25.87
2018-07-21T09:25:18.081Z,25.93
2018-07-21T09:27:46.504Z,25.89
2018-07-21T09:30:14.964Z,25.95
2018-07-21T09:32:44.185Z,25.98
2018-07-21T09:35:12.563Z,25.84
2018-07-21T09:37:40.932Z,26.01
2018-07-21T09:40:09.297Z,25.94
2018-07-21T09:42:37.615Z,25.92
2018-07-21T09:45:06.127Z,25.84
2018-07-21T09:47:34.517Z,25.86
2018-07-21T09:50:02.944Z,25.97
2018-07-21T09:52:31.306Z,25.81
2018-07-21T09:54:59.621Z,25.96
2018-07-21T09:57:28.012Z,25.99
2018-07-21T09:59:56.427Z,26.16
2018-07-21T10:02:24.855Z,26.25
2018-07-21T10:04:53.749Z,26.25
2018-07-21T10:07:22.067Z,26.38
2018-07-21T10:09:50.392Z,26.52
2018-07-21T10:12:19.217Z,26.72
2018-07-21T10:14:47.636Z,26.76
2018-07-21T10:17:15.999Z,26.74
2018-07-21T10:19:44.367Z,26.96
2018-07-21T10:22:12.805Z,27.08
2018-07-21T10:24:46.546Z,26.97
2018-07-21T10:27:15.886Z,26.82
2018-07-21T10:29:44.223Z,26.86
2018-07-21T10:32:12.666Z,27.04
2018-07-21T10:34:41.164Z,26.57
2018-07-21T10:37:09.849Z,26.80
2018-07-21T10:39:38.249Z,26.69
2018-07-21T10:42:07.060Z,26.87
2018-07-21T10:44:35.359Z,27.03
2018-07-21T10:47:03.651Z,26.96
2018-07-21T10:49:31.982Z,26.81
2018-07-21T10:52:00.360Z,26.97
2018-07-21T10:54:28.695Z,27.06
2018-07-21T10:56:57.038Z,26.93
2018-07-21T10:59:25.363Z,26.95
2018-07-21T11:01:53.751Z,27.13
2018-07-21T11:04:22.161Z,27.21
2018-07-21T11:06:50.518Z,27.47
2018-07-21T11:09:18.843Z,27.66
2018-07-21T11:11:49.979Z,27.53
2018-07-21T11:14:18.465Z,27.44
2018-07-21T11:16:46.835Z,27.44
2018-07-21T11:19:21.588Z,27.63
2018-07-21T11:21:52.707Z,27.51
2018-07-21T11:24:22.195Z,27.48
2018-07-21T11:26:53.433Z,27.43
2018-07-21T11:29:22.626Z,27.57
2018-07-21T11:31:51.596Z,27.43
2018-07-21T11:34:20.352Z,27.42
2018-07-21T11:36:50.884Z,27.47
2018-07-21T11:39:20.277Z,27.56
2018-07-21T11:41:49.810Z,27.67
2018-07-21T11:44:23.931Z,27.56
2018-07-21T11:46:53.973Z,27.60
2018-07-21T11:49:23.766Z,27.35
2018-07-21T11:51:55.801Z,27.61
2018-07-21T11:54:25.318Z,27.68
2018-07-21T11:56:58.930Z,27.75
2018-07-21T11:59:31.995Z,27.34
2018-07-21T12:02:00.392Z,27.21
2018-07-21T12:04:29.713Z,27.13
2018-07-21T12:06:59.299Z,26.78
2018-07-21T12:09:27.578Z,27.02
2018-07-21T12:11:56.086Z,27.06
2018-07-21T12:14:24.695Z,26.85
2018-07-21T12:16:53.079Z,26.86
2018-07-21T12:19:21.335Z,26.94
2018-07-21T12:21:49.663Z,26.89
2018-07-21T12:24:17.999Z,27.11
2018-07-21T12:26:46.360Z,26.85
2018-07-21T12:29:14.775Z,26.74
2018-07-21T12:31:43.175Z,26.57
2018-07-21T12:34:11.689Z,26.51
2018-07-21T12:36:39.944Z,26.56
2018-07-21T12:39:09.846Z,26.64
2018-07-21T12:41:38.463Z,26.65
2018-07-21T12:44:06.850Z,26.52
2018-07-21T12:46:35.322Z,26.38
2018-07-21T12:49:03.733Z,26.93
2018-07-21T12:51:32.493Z,26.98
2018-07-21T12:54:00.808Z,26.80
2018-07-21T12:56:29.394Z,26.86
2018-07-21T12:58:57.705Z,26.60
2018-07-21T13:01:26.083Z,26.79
2018-07-21T13:03:54.407Z,26.92
2018-07-21T13:06:22.763Z,26.96
2018-07-21T13:08:51.040Z,26.98
2018-07-21T13:11:19.485Z,26.95
2018-07-21T13:13:53.438Z,27.04
2018-07-21T13:16:23.314Z,27.02
2018-07-21T13:18:51.627Z,27.03
2018-07-21T13:21:20.316Z,26.97
2018-07-21T13:23:52.093Z,27.07
2018-07-21T13:26:24.610Z,27.23
2018-07-21T13:29:01.147Z,26.86
2018-07-21T13:31:36.952Z,26.62
2018-07-21T13:34:05.495Z,26.46
2018-07-21T13:36:33.845Z,26.79
2018-07-21T13:39:02.122Z,26.60
2018-07-21T13:41:30.451Z,26.72
2018-07-21T13:43:58.790Z,26.64
2018-07-21T13:46:27.109Z,26.59
2018-07-21T13:48:55.598Z,26.88
2018-07-21T13:51:24.008Z,26.69
2018-07-21T13:53:52.769Z,26.70
2018-07-21T13:56:21.132Z,26.70
2018-07-21T13:58:49.452Z,26.95
2018-07-21T14:01:17.750Z,26.96
2018-07-21T14:03:46.425Z,27.11
2018-07-21T14:06:15.040Z,27.06
2018-07-21T14:08:43.438Z,26.67
2018-07-21T14:11:11.746Z,26.75
2018-07-21T14:13:40.109Z,27.31
2018-07-21T14:16:08.590Z,27.08
2018-07-21T14:18:36.947Z,26.75
2018-07-21T14:21:05.285Z,26.67
2018-07-21T14:23:33.592Z,26.32
2018-07-21T14:26:01.870Z,26.67
2018-07-21T14:28:30.178Z,26.83
2018-07-21T14:30:58.556Z,26.98
2018-07-21T14:33:26.889Z,26.91
2018-07-21T14:35:55.394Z,27.17
2018-07-21T14:38:23.658Z,27.02
2018-07-21T14:40:51.939Z,26.88
2018-07-21T14:43:20.711Z,26.90
2018-07-21T14:45:48.986Z,26.61
2018-07-21T14:48:17.303Z,26.57
2018-07-21T14:50:45.575Z,26.49
2018-07-21T14:53:14.020Z,26.57
2018-07-21T14:55:42.520Z,26.38
2018-07-21T14:58:10.939Z,26.42
2018-07-21T15:00:39.249Z,26.37
2018-07-21T15:03:07.606Z,26.28
2018-07-21T15:05:35.922Z,26.21
2018-07-21T15:08:04.301Z,26.01
2018-07-21T15:10:32.646Z,26.07
2018-07-21T15:13:01.107Z,25.90
2018-07-21T15:15:29.507Z,26.05
2018-07-21T15:17:58.199Z,26.03
2018-07-21T15:20:26.560Z,26.13
2018-07-21T15:22:54.992Z,26.09
2018-07-21T15:25:23.326Z,25.95
2018-07-21T15:27:52.271Z,25.85
2018-07-21T15:30:20.994Z,25.86
2018-07-21T15:32:49.371Z,25.72
2018-07-21T15:35:18.100Z,25.62
2018-07-21T15:37:46.824Z,25.50
2018-07-21T15:40:15.249Z,25.46
2018-07-21T15:42:43.579Z,25.56
2018-07-21T15:45:13.136Z,25.82
2018-07-21T15:47:41.706Z,25.75
2018-07-21T15:50:11.946Z,25.55
2018-07-21T15:52:52.826Z,25.49
2018-07-21T15:55:21.875Z,25.49
2018-07-21T15:57:56.309Z,25.72
2018-07-21T16:00:29.575Z,25.73
2018-07-21T16:02:57.914Z,25.79
2018-07-21T16:05:29.169Z,25.84
2018-07-21T16:07:58.489Z,25.86
2018-07-21T16:10:27.270Z,25.66
2018-07-21T16:12:56.554Z,25.70
2018-07-21T16:15:25.228Z,25.78
2018-07-21T16:17:53.607Z,25.78
2018-07-21T16:20:21.955Z,25.74
2018-07-21T16:22:50.248Z,25.86
2018-07-21T16:25:18.622Z,26.03
2018-07-21T16:27:47.126Z,25.93
2018-07-21T16:30:15.436Z,25.91
2018-07-21T16:32:44.967Z,25.95
2018-07-21T16:35:13.732Z,26.07
2018-07-21T16:37:42.140Z,26.04
2018-07-21T16:40:10.764Z,26.16
2018-07-21T16:42:39.054Z,26.21
2018-07-21T16:45:07.446Z,26.21
2018-07-21T16:47:36.300Z,26.16
2018-07-21T16:50:04.780Z,25.89
2018-07-21T16:52:33.134Z,25.69
2018-07-21T16:55:01.579Z,25.59
2018-07-21T16:57:29.875Z,25.68
2018-07-21T16:59:58.693Z,25.78
2018-07-21T17:02:26.947Z,25.86
2018-07-21T17:04:55.590Z,25.94
2018-07-21T17:07:24.381Z,26.11
2018-07-21T17:09:53.177Z,26.14
2018-07-21T17:12:24.660Z,26.25
2018-07-21T17:14:53.273Z,26.23
2018-07-21T17:17:21.712Z,26.54
2018-07-21T17:19:50.229Z,26.36
2018-07-21T17:22:19.714Z,26.53
2018-07-21T17:24:48.134Z,26.27
2018-07-21T17:27:16.790Z,26.55
2018-07-21T17:29:45.165Z,26.41
2018-07-21T17:32:13.567Z,26.27
2018-07-21T17:34:42.156Z,26.35
2018-07-21T17:37:10.520Z,26.34
2018-07-21T17:39:38.929Z,26.15
2018-07-21T17:42:07.276Z,26.08
2018-07-21T17:44:35.612Z,26.05
2018-07-21T17:47:03.981Z,25.88
2018-07-21T17:49:32.346Z,26.00
2018-07-21T17:52:00.710Z,25.88
2018-07-21T17:54:29.418Z,25.71
2018-07-21T17:56:57.720Z,25.63
2018-07-21T17:59:26.078Z,25.65
2018-07-21T18:01:54.505Z,25.56
2018-07-21T18:04:22.943Z,25.58
2018-07-21T18:06:52.192Z,25.28
2018-07-21T18:09:21.201Z,25.39
2018-07-21T18:11:50.088Z,25.33
2018-07-21T18:14:18.568Z,25.32
2018-07-21T18:16:47.286Z,25.29
2018-07-21T18:19:15.728Z,25.21
2018-07-21T18:21:44.674Z,25.29
2018-07-21T18:24:12.968Z,25.22
2018-07-21T18:26:42.028Z,25.22
2018-07-21T18:29:10.353Z,25.34
2018-07-21T18:31:38.756Z,25.22
2018-07-21T18:34:07.416Z,25.24
2018-07-21T18:36:35.878Z,25.18
2018-07-21T18:39:05.028Z,25.08
2018-07-21T18:41:33.431Z,24.92
2018-07-21T18:44:05.022Z,24.82
2018-07-21T18:46:33.372Z,24.90
2018-07-21T18:49:01.878Z,24.64
2018-07-21T18:51:30.191Z,24.41
2018-07-21T18:53:58.628Z,24.26
2018-07-21T18:56:26.968Z,24.00
2018-07-21T18:58:55.259Z,23.76
2018-07-21T19:01:24.957Z,23.48
2018-07-21T19:03:56.758Z,23.12
2018-07-21T19:06:26.466Z,23.07
2018-07-21T19:09:05.347Z,23.04
2018-07-21T19:11:33.816Z,22.95
2018-07-21T19:14:02.386Z,22.57
2018-07-21T19:16:36.176Z,22.11
2018-07-21T19:19:04.907Z,22.00
2018-07-21T19:21:33.281Z,22.04
2018-07-21T19:24:03.000Z,22.06
2018-07-21T19:26:37.872Z,21.78
2018-07-21T19:29:06.711Z,21.49
2018-07-21T19:31:35.448Z,21.45
2018-07-21T19:34:03.924Z,21.27
2018-07-21T19:36:45.922Z,21.14
2018-07-21T19:39:15.303Z,21.26
2018-07-21T19:41:49.587Z,21.24
2018-07-21T19:44:19.722Z,21.13
2018-07-21T19:46:48.691Z,21.28
2018-07-21T19:49:17.164Z,21.20
2018-07-21T19:54:41.235Z,21.14
2018-07-21T19:57:10.998Z,21.15
2018-07-21T19:59:39.555Z,21.21
2018-07-21T20:02:08.634Z,21.03
2018-07-21T20:04:40.983Z,20.83
2018-07-21T20:07:10.286Z,20.71
2018-07-21T20:09:41.049Z,20.77
2018-07-21T20:12:10.343Z,20.72
2018-07-21T20:14:39.451Z,21.17
2018-07-21T20:17:10.184Z,21.40
2018-07-21T20:19:39.203Z,21.40
2018-07-21T20:22:07.556Z,21.49
2018-07-21T20:24:36.255Z,21.62
2018-07-21T20:27:04.593Z,21.58
2018-07-21T20:29:32.890Z,21.56
2018-07-21T20:32:01.243Z,21.58
2018-07-21T20:34:29.522Z,21.16
2018-07-21T20:36:57.915Z,21.15
2018-07-21T20:39:26.246Z,21.15
2018-07-21T20:41:54.586Z,20.97
2018-07-21T20:44:22.916Z,21.10
2018-07-21T20:46:51.591Z,21.11
2018-07-21T20:49:24.261Z,21.10
2018-07-21T20:51:53.049Z,21.15
2018-07-21T20:54:21.382Z,21.08
2018-07-21T20:56:50.952Z,21.11
2018-07-21T20:59:19.283Z,21.17
2018-07-21T21:01:48.714Z,21.06
2018-07-21T21:04:18.386Z,20.76
2018-07-21T21:06:46.775Z,20.79
2018-07-21T21:09:15.194Z,20.82
2018-07-21T21:11:43.772Z,20.74
2018-07-21T21:14:13.155Z,20.92
2018-07-21T21:16:42.347Z,20.96
2018-07-21T21:19:10.674Z,20.89
2018-07-21T21:21:39.184Z,20.84
2018-07-21T21:24:07.624Z,20.86
2018-07-21T21:26:40.941Z,20.97
2018-07-21T21:29:09.539Z,20.79
2018-07-21T21:31:38.395Z,20.98
2018-07-21T21:34:10.807Z,20.93
2018-07-21T21:36:39.947Z,20.83
2018-07-21T21:39:12.838Z,20.97
2018-07-21T21:41:42.908Z,20.95
2018-07-21T21:44:11.255Z,20.93
2018-07-21T21:46:39.574Z,20.80
2018-07-21T21:49:09.350Z,20.75
2018-07-21T21:51:37.999Z,20.83
2018-07-21T21:54:07.141Z,20.77
2018-07-21T21:56:35.763Z,20.85
2018-07-21T21:59:04.752Z,20.85
2018-07-21T22:01:35.713Z,20.91
2018-07-21T22:04:07.554Z,20.96
2018-07-21T22:06:35.963Z,20.85
2018-07-21T22:09:08.061Z,20.68
2018-07-21T22:11:36.474Z,20.66
2018-07-21T22:14:05.494Z,20.69
2018-07-21T22:16:34.001Z,20.75
2018-07-21T22:19:02.354Z,20.80
2018-07-21T22:21:31.920Z,20.91
2018-07-21T22:24:00.281Z,20.81
2018-07-21T22:26:28.609Z,20.71
2018-07-21T22:28:56.975Z,20.77
2018-07-21T22:31:25.307Z,20.90
2018-07-21T22:33:53.648Z,20.82
2018-07-21T22:36:22.039Z,20.73
2018-07-21T22:38:50.432Z,20.71
2018-07-21T22:41:18.754Z,20.79
2018-07-21T22:43:47.188Z,20.56
2018-07-21T22:46:15.608Z,20.48
2018-07-21T22:48:43.958Z,20.46
2018-07-21T22:51:12.336Z,20.50
2018-07-21T22:53:48.986Z,20.56
2018-07-21T22:56:17.322Z,20.49
2018-07-21T22:58:45.951Z,20.40
2018-07-21T23:01:14.663Z,20.35
2018-07-21T23:03:43.315Z,20.39
2018-07-21T23:06:11.690Z,20.53
2018-07-21T23:08:40.050Z,20.57
2018-07-21T23:11:08.448Z,20.53
2018-07-21T23:13:36.786Z,20.50
2018-07-21T23:16:05.162Z,20.52
2018-07-21T23:18:33.564Z,20.53
2018-07-21T23:21:01.899Z,20.62
2018-07-21T23:23:30.884Z,20.61
2018-07-21T23:25:59.199Z,20.53
2018-07-21T23:28:27.605Z,20.58
2018-07-21T23:30:56.106Z,20.49
2018-07-21T23:33:24.453Z,20.37
2018-07-21T23:35:54.610Z,20.18
2018-07-21T23:38:23.050Z,20.29
2018-07-21T23:40:51.454Z,20.43
2018-07-21T23:43:20.182Z,20.41
2018-07-21T23:45:48.753Z,20.54
2018-07-21T23:48:17.033Z,20.56
2018-07-21T23:50:45.418Z,20.57
2018-07-21T23:53:13.778Z,20.59
2018-07-21T23:55:42.211Z,20.63
2018-07-21T23:58:10.798Z,20.65
